Time;durP1;ratioP1;P1;durP2;ratioP2;P2;SDS_P1;SDS_P2;PMS_P1;PMS_P2;Temp;Humidity;BMP_temperature;BMP_pressure;BME280_temperature;BME280_humidity;BME280_pressure;Samples;Min_cycle;Max_cycle;Signal;HPM_P1;HPM_P2
2023/08/12 00:01:20;;;;;;;;;;;;;;;24.97;48.68;101706.63;4829951;29;124709;-79
2023/08/12 00:03:48;;;;;;;;;;;;;;;24.97;48.82;101709.34;4831748;29;122558;-79
2023/08/12 00:06:15;;;;;;;;;;;;;;;24.97;48.67;101703.91;4854185;29;113592;-79
2023/08/12 00:08:42;;;;;;;;;;;;;;;24.98;48.59;101704.78;4840477;29;114801;-78
2023/08/12 00:11:09;;;;;;;;;;;;;;;24.97;48.54;101697.66;4850991;29;123478;-79
2023/08/12 00:13:36;;;;;;;;;;;;;;;24.97;48.71;101703.91;4838426;29;122893;-79
2023/08/12 00:16:03;;;;;;;;;;;;;;;24.96;48.81;101699.50;4851054;29;113774;-78
2023/08/12 00:18:36;;;;;;;;;;;;;;;24.95;48.79;101700.50;4855761;29;114644;-78
2023/08/12 00:21:06;;;;;;;;;;;;;;;24.93;48.92;101686.22;4850680;29;124925;-78
2023/08/12 00:23:35;;;;;;;;;;;;;;;24.94;48.77;101693.38;4840737;29;121980;-78
2023/08/12 00:26:02;;;;;;;;;;;;;;;24.93;48.72;101691.66;4839628;29;114619;-79
2023/08/12 00:28:29;;;;;;;;;;;;;;;24.93;49.02;101686.22;4840476;29;113463;-79
2023/08/12 00:30:56;;;;;;;;;;;;;;;24.94;49.00;101687.97;4838984;29;122722;-78
2023/08/12 00:33:23;;;;;;;;;;;;;;;24.92;48.93;101695.38;4835604;29;125018;-78
2023/08/12 00:35:49;;;;;;;;;;;;;;;24.93;49.00;101691.66;4836592;29;114096;-79
2023/08/12 00:38:17;;;;;;;;;;;;;;;24.93;48.94;101691.66;4840536;29;113625;-78
2023/08/12 00:40:44;;;;;;;;;;;;;;;24.93;48.93;101691.66;4838282;29;123342;-78
2023/08/12 00:43:11;;;;;;;;;;;;;;;24.94;49.14;101687.97;4852262;28;123654;-79
2023/08/12 00:45:38;;;;;;;;;;;;;;;24.94;49.00;101687.97;4837827;29;115881;-78
2023/08/12 00:48:07;;;;;;;;;;;;;;;24.96;49.25;101675.13;4844563;29;114205;-78
2023/08/12 00:50:35;;;;;;;;;;;;;;;24.97;49.09;101671.38;4822292;29;123801;-78
2023/08/12 00:53:05;;;;;;;;;;;;;;;24.96;49.18;101668.81;4851063;29;123835;-79
2023/08/12 00:55:33;;;;;;;;;;;;;;;24.94;49.28;101660.84;4831649;29;114324;-78
2023/08/12 00:58:00;;;;;;;;;;;;;;;24.90;49.20;101653.13;4838848;29;113826;-78
2023/08/12 01:00:27;;;;;;;;;;;;;;;24.87;49.11;101654.28;4821482;29;122463;-79
2023/08/12 01:02:56;;;;;;;;;;;;;;;24.85;49.38;101656.28;4850003;29;123824;-79
2023/08/12 01:05:23;;;;;;;;;;;;;;;24.81;49.39;101652.16;4839488;29;114280;-79
2023/08/12 01:07:50;;;;;;;;;;;;;;;24.78;49.47;101647.84;4834894;29;111528;-79
2023/08/12 01:10:17;;;;;;;;;;;;;;;24.76;49.53;101646.31;4836696;29;123202;-79
2023/08/12 01:12:50;;;;;;;;;;;;;;;24.74;49.29;101637.47;4838100;29;124260;-79
2023/08/12 01:15:21;;;;;;;;;;;;;;;24.75;49.42;101639.16;4837956;29;115873;-79
2023/08/12 01:17:51;;;;;;;;;;;;;;;24.75;49.41;101639.16;4850988;29;114687;-79
2023/08/12 01:20:24;;;;;;;;;;;;;;;24.75;49.68;101644.56;4839260;29;123314;-79
2023/08/12 01:23:09;;;;;;;;;;;;;;;24.76;49.72;101647.16;4857661;29;122878;-79
2023/08/12 01:25:36;;;;;;;;;;;;;;;24.75;49.78;101644.56;4840306;29;113107;-79
2023/08/12 01:28:03;;;;;;;;;;;;;;;24.76;49.83;101646.31;4839123;29;113159;-79
2023/08/12 01:30:31;;;;;;;;;;;;;;;24.75;49.74;101634.63;4838315;29;124570;-79
2023/08/12 01:33:15;;;;;;;;;;;;;;;24.75;49.65;101628.31;4839056;29;124235;-79
2023/08/12 01:35:45;;;;;;;;;;;;;;;24.71;49.62;101621.47;4836535;29;115229;-78
2023/08/12 01:38:15;;;;;;;;;;;;;;;24.70;49.74;101619.78;4837308;29;115029;-78
2023/08/12 01:40:43;;;;;;;;;;;;;;;24.70;49.83;101625.19;4833242;29;124102;-78
2023/08/12 01:43:10;;;;;;;;;;;;;;;24.70;50.15;101608.94;4837592;29;123388;-79
2023/08/12 01:45:37;;;;;;;;;;;;;;;24.70;50.13;101608.94;4837050;29;114802;-78
2023/08/12 01:48:04;;;;;;;;;;;;;;;24.70;50.20;101603.53;4835945;29;114889;-79
2023/08/12 01:50:31;;;;;;;;;;;;;;;24.68;50.09;101601.81;4832144;29;124283;-79
2023/08/12 01:52:58;;;;;;;;;;;;;;;24.68;49.91;101601.81;4839188;28;122332;-79
2023/08/12 01:55:26;;;;;;;;;;;;;;;24.70;50.09;101600.81;4835445;29;114564;-79
2023/08/12 01:57:53;;;;;;;;;;;;;;;24.70;50.08;101592.69;4849296;29;112864;-79
2023/08/12 02:00:20;;;;;;;;;;;;;;;24.70;50.19;101589.97;4835331;29;122511;-79
2023/08/12 02:02:47;;;;;;;;;;;;;;;24.68;50.20;101590.97;4850916;29;123265;-78
2023/08/12 02:05:15;;;;;;;;;;;;;;;24.68;50.33;101595.53;4820063;29;112751;-79
2023/08/12 02:07:42;;;;;;;;;;;;;;;24.70;50.00;101581.84;4836418;29;113767;-79
2023/08/12 02:10:09;;;;;;;;;;;;;;;24.70;49.99;101587.28;4836059;29;125489;-78
2023/08/12 02:12:36;;;;;;;;;;;;;;;24.71;50.28;101588.97;4836147;29;124342;-79
2023/08/12 02:15:03;;;;;;;;;;;;;;;24.72;50.38;101583.41;4821546;29;114697;-79
2023/08/12 02:17:30;;;;;;;;;;;;;;;24.72;50.13;101586.13;4838531;29;113731;-79
2023/08/12 02:19:57;;;;;;;;;;;;;;;24.73;50.34;101586.97;4821785;29;123780;-78
2023/08/12 02:22:24;;;;;;;;;;;;;;;24.73;50.24;101586.97;4853395;29;124678;-79
2023/08/12 02:24:51;;;;;;;;;;;;;;;24.72;50.30;101585.28;4838477;29;114603;-78
2023/08/12 02:27:20;;;;;;;;;;;;;;;24.72;50.25;101585.28;4841918;29;115155;-78
2023/08/12 02:29:47;;;;;;;;;;;;;;;24.72;50.17;101585.28;4841537;29;124723;-78
2023/08/12 02:32:14;;;;;;;;;;;;;;;24.71;50.19;101580.84;4835693;29;123825;-79
2023/08/12 02:34:41;;;;;;;;;;;;;;;24.71;50.26;101575.44;4838773;29;113861;-78
2023/08/12 02:37:09;;;;;;;;;;;;;;;24.69;50.42;101580.97;4855079;28;113283;-78
2023/08/12 02:39:37;;;;;;;;;;;;;;;24.67;50.30;101578.41;4839261;29;124296;-79
2023/08/12 02:42:04;;;;;;;;;;;;;;;24.67;50.32;101573.00;4841507;29;125151;-78
2023/08/12 02:44:31;;;;;;;;;;;;;;;24.66;50.34;101568.59;4838289;29;114025;-78
2023/08/12 02:46:58;;;;;;;;;;;;;;;24.65;50.53;101569.56;4840002;29;114160;-79
2023/08/12 02:49:25;;;;;;;;;;;;;;;24.64;50.58;101565.16;4837914;29;123989;-79
2023/08/12 02:51:52;;;;;;;;;;;;;;;24.63;50.48;101563.44;4834311;29;124100;-79
2023/08/12 02:54:19;;;;;;;;;;;;;;;24.63;50.61;101559.91;4838119;29;114569;-79
2023/08/12 02:56:46;;;;;;;;;;;;;;;24.62;50.61;101559.03;4853395;29;113064;-79
2023/08/12 02:59:13;;;;;;;;;;;;;;;24.62;50.52;101553.63;4848962;29;123265;-79
2023/08/12 03:01:41;;;;;;;;;;;;;;;24.62;50.49;101548.22;4838085;29;124548;-79
2023/08/12 03:04:08;;;;;;;;;;;;;;;24.61;50.62;101541.06;4854119;28;115753;-79
2023/08/12 03:06:35;;;;;;;;;;;;;;;24.58;50.42;101541.38;4837576;29;113830;-78
2023/08/12 03:09:02;;;;;;;;;;;;;;;24.57;50.53;101545.06;4851479;28;125944;-78
2023/08/12 03:11:29;;;;;;;;;;;;;;;24.55;50.60;101541.66;4836553;29;124124;-79
2023/08/12 03:13:58;;;;;;;;;;;;;;;24.52;50.68;101536.50;4852923;28;115053;-78
2023/08/12 03:16:26;;;;;;;;;;;;;;;24.54;50.59;101534.50;4845155;29;114998;-78
2023/08/12 03:18:53;;;;;;;;;;;;;;;24.53;50.67;101530.09;4851093;29;124820;-79
2023/08/12 03:21:20;;;;;;;;;;;;;;;24.53;50.91;101521.97;4831192;29;123419;-78
2023/08/12 03:23:48;;;;;;;;;;;;;;;24.51;50.65;101523.94;4836886;29;115570;-79
2023/08/12 03:26:15;;;;;;;;;;;;;;;24.48;50.88;101521.53;4837570;29;111886;-79
2023/08/12 03:28:43;;;;;;;;;;;;;;;24.46;50.94;101520.81;4837946;29;126069;-79
2023/08/12 03:31:13;;;;;;;;;;;;;;;24.45;50.95;101513.72;4853368;29;123800;-78
2023/08/12 03:33:41;;;;;;;;;;;;;;;24.44;51.10;101512.81;4837415;29;113228;-78
2023/08/12 03:36:08;;;;;;;;;;;;;;;24.45;50.89;101508.28;4822202;29;114823;-78
2023/08/12 03:38:36;;;;;;;;;;;;;;;24.42;50.97;101504.00;4833032;29;123504;-79
2023/08/12 03:41:03;;;;;;;;;;;;;;;24.41;51.29;101501.41;4853512;29;123383;-79
2023/08/12 03:43:33;;;;;;;;;;;;;;;24.42;50.99;101497.72;4823897;29;114235;-79
2023/08/12 03:46:00;;;;;;;;;;;;;;;24.42;51.05;101492.31;4852378;29;114082;-78
2023/08/12 03:48:28;;;;;;;;;;;;;;;24.43;50.98;101494.00;4838163;29;126034;-78
2023/08/12 03:50:55;;;;;;;;;;;;;;;24.43;50.98;101499.41;4821768;29;123821;-79
2023/08/12 03:53:22;;;;;;;;;;;;;;;24.42;51.43;101500.44;4837769;29;114840;-79
2023/08/12 03:55:50;;;;;;;;;;;;;;;24.42;51.04;101497.72;4822673;29;112479;-79
2023/08/12 03:58:18;;;;;;;;;;;;;;;24.42;51.33;101497.72;4831928;29;123682;-79
2023/08/12 04:00:46;;;;;;;;;;;;;;;24.45;51.18;101497.47;4840212;29;123124;-79
2023/08/12 04:03:15;;;;;;;;;;;;;;;24.47;51.36;101484.63;4823770;29;114488;-78
2023/08/12 04:05:52;;;;;;;;;;;;;;;24.47;51.39;101481.91;4846404;29;115027;-78
2023/08/12 04:08:21;;;;;;;;;;;;;;;24.46;51.20;101480.19;4845482;29;123610;-78
2023/08/12 04:10:47;;;;;;;;;;;;;;;24.44;51.21;101474.91;4834415;29;122890;-79
2023/08/12 04:13:14;;;;;;;;;;;;;;;24.43;51.28;101483.19;4853438;29;113618;-79
2023/08/12 04:15:42;;;;;;;;;;;;;;;24.42;51.53;101470.66;4839510;29;112596;-79
2023/08/12 04:18:09;;;;;;;;;;;;;;;24.43;51.54;101488.59;4848687;29;124974;-79
2023/08/12 04:20:37;;;;;;;;;;;;;;;24.43;51.42;101486.75;4833859;29;125290;-79
2023/08/12 04:23:04;;;;;;;;;;;;;;;24.45;51.28;101481.22;4851282;29;113943;-78
2023/08/12 04:25:31;;;;;;;;;;;;;;;24.45;51.49;101486.63;4842180;29;111807;-78
2023/08/12 04:27:59;;;;;;;;;;;;;;;24.44;51.47;101490.31;4838269;29;124405;-78
2023/08/12 04:30:26;;;;;;;;;;;;;;;24.43;51.45;101486.75;4837834;29;123321;-79
2023/08/12 04:32:54;;;;;;;;;;;;;;;24.44;51.41;101479.47;4837073;29;114776;-79
2023/08/12 04:35:22;;;;;;;;;;;;;;;24.45;51.68;101475.78;4837853;29;114005;-79
2023/08/12 04:37:49;;;;;;;;;;;;;;;24.47;51.57;101468.38;4820957;29;124864;-79
2023/08/12 04:40:17;;;;;;;;;;;;;;;24.48;51.70;101470.06;4831331;29;124641;-78
2023/08/12 04:42:46;;;;;;;;;;;;;;;24.49;51.54;101463.66;4838191;29;115741;-79
2023/08/12 04:45:13;;;;;;;;;;;;;;;24.49;51.53;101450.13;4830772;29;113423;-78
2023/08/12 04:47:40;;;;;;;;;;;;;;;24.50;51.54;101449.09;4829745;29;124261;-79
2023/08/12 04:50:07;;;;;;;;;;;;;;;24.50;51.62;101440.97;4831585;29;123985;-79
2023/08/12 04:52:34;;;;;;;;;;;;;;;24.50;51.62;101446.41;4824258;29;113930;-78
2023/08/12 04:55:02;;;;;;;;;;;;;;;24.49;51.59;101450.13;4843430;29;114115;-79
2023/08/12 04:57:29;;;;;;;;;;;;;;;24.49;51.69;101450.13;4851883;29;123773;-78
2023/08/12 04:59:57;;;;;;;;;;;;;;;24.49;51.92;101455.53;4851768;29;125654;-79
2023/08/12 05:02:24;;;;;;;;;;;;;;;24.46;51.69;101455.81;4837686;29;114362;-79
2023/08/12 05:04:52;;;;;;;;;;;;;;;24.44;51.75;101452.41;4836747;29;114419;-78
2023/08/12 05:07:21;;;;;;;;;;;;;;;24.43;51.76;101451.56;4837286;29;125307;-78
2023/08/12 05:09:47;;;;;;;;;;;;;;;24.42;51.77;101454.41;4838100;29;123604;-77
2023/08/12 05:12:16;;;;;;;;;;;;;;;24.41;52.00;101453.56;4839683;29;115451;-77
2023/08/12 05:14:43;;;;;;;;;;;;;;;24.41;52.04;101458.09;4854257;29;113943;-78
2023/08/12 05:17:10;;;;;;;;;;;;;;;24.41;51.99;101463.50;4835461;29;123963;-77
2023/08/12 05:19:38;;;;;;;;;;;;;;;24.41;51.93;101458.97;4852445;29;123988;-77
2023/08/12 05:22:05;;;;;;;;;;;;;;;24.41;52.02;101448.16;4835716;29;113471;-78
2023/08/12 05:24:32;;;;;;;;;;;;;;;24.41;52.10;101448.16;4833128;29;115829;-78
2023/08/12 05:26:59;;;;;;;;;;;;;;;24.40;51.80;101445.56;4849909;28;124638;-77
2023/08/12 05:29:26;;;;;;;;;;;;;;;24.37;51.96;101440.44;4826155;29;122942;-76
2023/08/12 05:31:53;;;;;;;;;;;;;;;24.35;51.89;101437.03;4830338;29;114619;-77
2023/08/12 05:34:20;;;;;;;;;;;;;;;24.33;52.09;101422.78;4829483;29;114096;-77
2023/08/12 05:36:47;;;;;;;;;;;;;;;24.29;52.06;101423.06;4828266;29;124566;-77
2023/08/12 05:39:15;;;;;;;;;;;;;;;24.25;51.94;101405.41;4835132;29;123066;-77
2023/08/12 05:41:42;;;;;;;;;;;;;;;24.22;52.10;101408.41;4818542;29;115602;-77
2023/08/12 05:44:09;;;;;;;;;;;;;;;24.17;52.23;101408.00;4841449;29;113429;-77
2023/08/12 05:46:36;;;;;;;;;;;;;;;24.15;52.18;101415.41;4835227;29;123939;-77
2023/08/12 05:49:03;;;;;;;;;;;;;;;24.14;52.22;101419.09;4837589;29;123774;-77
2023/08/12 05:51:29;;;;;;;;;;;;;;;24.13;52.44;101422.81;4838555;29;114381;-77
2023/08/12 05:53:56;;;;;;;;;;;;;;;24.10;52.22;101428.50;4838689;29;113977;-77
2023/08/12 05:56:23;;;;;;;;;;;;;;;24.09;52.36;101415.94;4836990;29;124708;-77
2023/08/12 05:58:50;;;;;;;;;;;;;;;24.08;52.28;101408.84;4838245;29;124922;-76
2023/08/12 06:01:17;;;;;;;;;;;;;;;24.06;52.26;101421.69;4834395;29;115288;-77
2023/08/12 06:03:44;;;;;;;;;;;;;;;24.06;52.27;101421.69;4829191;29;114077;-77
2023/08/12 06:06:11;;;;;;;;;;;;;;;24.04;52.27;101419.09;4836849;29;124320;-77
2023/08/12 06:08:38;;;;;;;;;;;;;;;24.04;52.36;101421.81;4838239;29;124303;-76
2023/08/12 06:11:05;;;;;;;;;;;;;;;24.03;52.49;101416.53;4848627;29;114960;-77
2023/08/12 06:13:32;;;;;;;;;;;;;;;24.02;52.33;101409.44;4837052;29;112920;-77
2023/08/12 06:15:59;;;;;;;;;;;;;;;24.02;52.39;101420.25;4829692;29;124218;-77
2023/08/12 06:18:26;;;;;;;;;;;;;;;24.02;52.40;101420.25;4835325;29;123949;-77
2023/08/12 06:20:53;;;;;;;;;;;;;;;24.01;52.38;101413.13;4838471;29;114898;-77
2023/08/12 06:23:20;;;;;;;;;;;;;;;24.00;52.66;101406.03;4837077;29;112947;-77
2023/08/12 06:25:47;;;;;;;;;;;;;;;23.97;52.39;101390.91;4837950;29;124190;-77
2023/08/12 06:28:14;;;;;;;;;;;;;;;23.96;52.55;101393.75;4834848;29;123349;-78
2023/08/12 06:30:44;;;;;;;;;;;;;;;23.92;52.66;101393.19;4839175;29;115057;-77
2023/08/12 06:33:11;;;;;;;;;;;;;;;23.90;52.67;101401.47;4848731;29;114683;-78
2023/08/12 06:35:39;;;;;;;;;;;;;;;23.88;52.68;101403.47;4840519;29;124869;-78
2023/08/12 06:38:06;;;;;;;;;;;;;;;23.89;52.66;101394.31;4822256;29;124997;-77
2023/08/12 06:40:33;;;;;;;;;;;;;;;23.90;52.89;101395.16;4838891;29;114624;-77
2023/08/12 06:43:00;;;;;;;;;;;;;;;23.92;52.85;101386.91;4839774;29;114148;-78
2023/08/12 06:45:27;;;;;;;;;;;;;;;23.92;52.75;101382.34;4839544;29;124825;-78
2023/08/12 06:47:54;;;;;;;;;;;;;;;23.90;52.69;101379.81;4822559;29;124338;-77
2023/08/12 06:50:21;;;;;;;;;;;;;;;23.89;52.68;101383.50;4830419;29;113987;-77
2023/08/12 06:52:48;;;;;;;;;;;;;;;23.90;52.82;101374.41;4837009;29;113875;-77
2023/08/12 06:55:15;;;;;;;;;;;;;;;23.89;52.84;101372.69;4831525;29;124181;-76
2023/08/12 06:57:42;;;;;;;;;;;;;;;23.90;53.09;101387.94;4833801;29;123807;-78
2023/08/12 07:00:09;;;;;;;;;;;;;;;23.90;52.83;101385.22;4828832;29;113760;-77
2023/08/12 07:02:36;;;;;;;;;;;;;;;23.92;52.89;101386.91;4833473;29;113611;-77
2023/08/12 07:05:04;;;;;;;;;;;;;;;23.92;52.94;101376.09;4837097;29;125744;-77
2023/08/12 07:07:31;;;;;;;;;;;;;;;23.93;53.07;101375.13;4824917;29;124291;-78
2023/08/12 07:09:58;;;;;;;;;;;;;;;23.93;53.03;101364.28;4839553;29;114553;-78
2023/08/12 07:12:25;;;;;;;;;;;;;;;23.92;52.94;101359.88;4839884;29;113026;-78
2023/08/12 07:14:52;;;;;;;;;;;;;;;23.93;52.98;101361.59;4837660;29;123404;-78
2023/08/12 07:17:19;;;;;;;;;;;;;;;23.96;52.96;101361.28;4851230;29;122553;-78
2023/08/12 07:19:45;;;;;;;;;;;;;;;23.98;53.19;101359.28;4839380;29;115648;-78
2023/08/12 07:22:12;;;;;;;;;;;;;;;24.01;53.08;101353.59;4849763;29;113547;-78
2023/08/12 07:24:40;;;;;;;;;;;;;;;24.01;53.28;101359.00;4842576;29;124246;-78
2023/08/12 07:27:07;;;;;;;;;;;;;;;24.02;53.23;101355.31;4838923;29;124118;-78
2023/08/12 07:29:34;;;;;;;;;;;;;;;24.05;53.49;101360.41;4841479;29;113851;-78
2023/08/12 07:32:00;;;;;;;;;;;;;;;24.09;53.22;101361.81;4828760;29;113058;-78
2023/08/12 07:34:27;;;;;;;;;;;;;;;24.14;53.18;101364.13;4833864;29;124998;-79
2023/08/12 07:36:57;;;;;;;;;;;;;;;24.18;53.27;101358.25;4827700;29;123403;-78
2023/08/12 07:39:24;;;;;;;;;;;;;;;24.25;53.31;101356.69;4836188;29;114996;-78
2023/08/12 07:41:51;;;;;;;;;;;;;;;24.27;53.21;101351.97;4836922;29;113449;-78
2023/08/12 07:44:18;;;;;;;;;;;;;;;24.29;53.22;101347.25;4834623;29;124820;-77
2023/08/12 07:46:45;;;;;;;;;;;;;;;24.33;53.31;101346.97;4839470;29;124297;-78
2023/08/12 07:49:12;;;;;;;;;;;;;;;24.36;53.49;101346.69;4840289;29;114787;-77
2023/08/12 07:51:39;;;;;;;;;;;;;;;24.39;53.31;101340.97;4841807;29;114458;-78
2023/08/12 07:54:06;;;;;;;;;;;;;;;24.41;53.43;101347.09;4835437;29;123698;-78
2023/08/12 07:56:33;;;;;;;;;;;;;;;24.44;53.34;101344.09;4848981;29;123067;-78
2023/08/12 07:59:00;;;;;;;;;;;;;;;24.45;53.48;101351.22;4840149;29;114458;-78
2023/08/12 08:01:27;;;;;;;;;;;;;;;24.46;53.48;101342.94;4852420;28;111960;-77
2023/08/12 08:03:54;;;;;;;;;;;;;;;24.48;53.41;101348.22;4838601;29;123911;-77
2023/08/12 08:06:22;;;;;;;;;;;;;;;24.51;53.41;101350.63;4838788;29;124626;-77
2023/08/12 08:08:49;;;;;;;;;;;;;;;24.53;53.54;101337.81;4838009;29;115161;-77
2023/08/12 08:11:16;;;;;;;;;;;;;;;24.52;53.54;101335.25;4845412;29;114702;-78
2023/08/12 08:13:43;;;;;;;;;;;;;;;24.54;53.39;101336.81;4839440;29;124532;-78
2023/08/12 08:16:10;;;;;;;;;;;;;;;24.58;53.60;101340.06;4847682;28;123435;-78
2023/08/12 08:18:37;;;;;;;;;;;;;;;24.60;53.70;101338.94;4835100;29;114482;-79
2023/08/12 08:21:04;;;;;;;;;;;;;;;24.61;53.33;101340.63;4852408;29;111967;-78
2023/08/12 08:23:32;;;;;;;;;;;;;;;24.63;53.66;101335.91;4838238;29;123778;-78
2023/08/12 08:25:59;;;;;;;;;;;;;;;24.66;53.64;101340.19;4840212;29;124539;-78
2023/08/12 08:28:25;;;;;;;;;;;;;;;24.67;53.66;101350.84;4839640;29;115619;-79
2023/08/12 08:30:53;;;;;;;;;;;;;;;24.68;53.51;101347.16;4838867;29;113395;-78
2023/08/12 08:33:20;;;;;;;;;;;;;;;24.70;53.73;101351.59;4836250;29;125351;-79
2023/08/12 08:35:47;;;;;;;;;;;;;;;24.72;53.72;101352.28;4840931;29;124358;-78
2023/08/12 08:38:14;;;;;;;;;;;;;;;24.74;53.57;101350.28;4837630;29;114051;-79
2023/08/12 08:40:41;;;;;;;;;;;;;;;24.75;53.62;101351.97;4838077;29;112610;-78
2023/08/12 08:43:08;;;;;;;;;;;;;;;24.77;53.66;101341.84;4838169;29;124460;-79
2023/08/12 08:45:36;;;;;;;;;;;;;;;24.78;53.85;101343.56;4840228;29;122706;-78
2023/08/12 08:48:04;;;;;;;;;;;;;;;24.78;53.65;101341.69;4843248;29;115235;-79
2023/08/12 08:50:32;;;;;;;;;;;;;;;24.80;54.06;101360.53;4836639;29;113667;-78
2023/08/12 08:52:59;;;;;;;;;;;;;;;24.83;53.84;101346.69;4837433;29;123411;-79
2023/08/12 08:55:26;;;;;;;;;;;;;;;24.85;53.94;101360.94;4838808;29;125103;-79
2023/08/12 08:57:56;;;;;;;;;;;;;;;24.87;53.79;101367.91;4840022;29;115105;-79
2023/08/12 09:00:28;;;;;;;;;;;;;;;24.93;54.02;101377.28;4847120;29;113736;-79
2023/08/12 09:02:57;;;;;;;;;;;;;;;24.98;53.79;101364.16;4853406;29;124635;-78
2023/08/12 09:05:25;;;;;;;;;;;;;;;25.01;53.98;101363.81;4837268;29;125128;-79
2023/08/12 09:07:53;;;;;;;;;;;;;;;25.06;54.10;101371.53;4839245;29;116397;-78
2023/08/12 09:10:21;;;;;;;;;;;;;;;25.09;54.10;101375.78;4833342;29;113091;-79
2023/08/12 09:12:48;;;;;;;;;;;;;;;25.12;53.84;101380.91;4838333;29;123617;-79
2023/08/12 09:15:16;;;;;;;;;;;;;;;25.13;54.10;101371.75;4853295;29;123987;-79
2023/08/12 09:17:43;;;;;;;;;;;;;;;25.16;53.88;101371.47;4836558;29;114837;-79
2023/08/12 09:20:13;;;;;;;;;;;;;;;25.20;53.77;101378.28;4838179;29;114790;-79
2023/08/12 09:22:41;;;;;;;;;;;;;;;25.19;53.66;101382.00;4821101;29;122830;-80
2023/08/12 09:25:09;;;;;;;;;;;;;;;25.16;53.74;101377.72;4837708;29;123581;-78
2023/08/12 09:27:37;;;;;;;;;;;;;;;25.14;53.90;101384.31;4838552;29;114099;-79
2023/08/12 09:30:04;;;;;;;;;;;;;;;25.13;53.95;101382.59;4837840;29;113118;-78
2023/08/12 09:32:34;;;;;;;;;;;;;;;25.13;53.85;101394.31;4846669;29;124330;-79
2023/08/12 09:35:05;;;;;;;;;;;;;;;25.15;54.00;101386.03;4837404;29;125821;-79
2023/08/12 09:37:33;;;;;;;;;;;;;;;25.19;54.28;101384.72;4853878;29;113780;-79
2023/08/12 09:40:00;;;;;;;;;;;;;;;25.25;53.92;101397.69;4838302;29;112910;-79
2023/08/12 09:42:28;;;;;;;;;;;;;;;25.27;53.98;101390.25;4846645;29;123593;-79
2023/08/12 09:44:56;;;;;;;;;;;;;;;25.30;54.17;101395.38;4832743;29;124199;-79
2023/08/12 09:47:25;;;;;;;;;;;;;;;25.33;53.79;101400.50;4820843;29;116734;-80
2023/08/12 09:49:52;;;;;;;;;;;;;;;25.35;53.89;101403.91;4835370;29;113404;-79
2023/08/12 09:52:19;;;;;;;;;;;;;;;25.37;53.93;101401.91;4838765;29;123192;-79
2023/08/12 09:54:47;;;;;;;;;;;;;;;25.37;54.05;101391.06;4837445;29;123988;-80
2023/08/12 09:57:16;;;;;;;;;;;;;;;25.40;54.04;101396.16;4839935;29;114618;-79
2023/08/12 09:59:46;;;;;;;;;;;;;;;25.48;54.24;101397.25;4838259;29;114008;-79
2023/08/12 10:02:18;;;;;;;;;;;;;;;25.58;54.17;101392.59;4836450;29;124542;-80
2023/08/12 10:04:45;;;;;;;;;;;;;;;25.66;54.17;101395.44;4833310;29;124703;-80
2023/08/12 10:07:13;;;;;;;;;;;;;;;25.72;53.96;101391.25;4837165;29;114771;-79
2023/08/12 10:09:41;;;;;;;;;;;;;;;25.73;54.13;101399.22;4854144;29;112740;-80
2023/08/12 10:12:09;;;;;;;;;;;;;;;25.72;53.78;101400.22;4852593;29;123558;-79
2023/08/12 10:14:36;;;;;;;;;;;;;;;25.76;54.05;101395.34;4838299;29;123662;-79
2023/08/12 10:17:04;;;;;;;;;;;;;;;25.83;54.38;101391.84;4838775;29;113526;-80
2023/08/12 10:19:33;;;;;;;;;;;;;;;25.96;54.11;101401.50;4852549;29;113400;-79
2023/08/12 10:22:02;;;;;;;;;;;;;;;26.06;54.31;101412.28;4837277;29;124025;-80
2023/08/12 10:24:29;;;;;;;;;;;;;;;26.12;54.41;101411.63;4838854;29;123475;-79
2023/08/12 10:26:56;;;;;;;;;;;;;;;26.19;54.28;101416.28;4838612;29;114531;-80
2023/08/12 10:29:24;;;;;;;;;;;;;;;26.30;54.17;101417.06;4839269;29;113588;-80
2023/08/12 10:31:51;;;;;;;;;;;;;;;26.42;54.36;101408.47;4848569;29;122144;-80
2023/08/12 10:34:22;;;;;;;;;;;;;;;26.52;54.16;101421.09;4840420;29;123702;-80
2023/08/12 10:37:01;;;;;;;;;;;;;;;26.57;53.97;101422.31;4839249;29;114126;-80
2023/08/12 10:39:33;;;;;;;;;;;;;;;26.58;53.97;101413.16;4839673;29;114747;-80
2023/08/12 10:42:01;;;;;;;;;;;;;;;26.56;53.79;101407.03;4841415;29;123820;-80
2023/08/12 10:44:46;;;;;;;;;;;;;;;26.55;53.99;101418.91;4823518;29;122422;-80
2023/08/12 10:47:13;;;;;;;;;;;;;;;26.54;53.54;101417.22;4856168;29;113774;-79
2023/08/12 10:49:47;;;;;;;;;;;;;;;26.52;53.53;101411.09;4842058;29;113406;-80
2023/08/12 10:52:27;;;;;;;;;;;;;;;26.52;53.71;101411.09;4841171;29;123120;-79
2023/08/12 10:54:54;;;;;;;;;;;;;;;26.55;53.96;101409.91;4846803;29;122321;-80
2023/08/12 10:57:39;;;;;;;;;;;;;;;26.60;53.77;101407.63;4834985;29;114364;-80
2023/08/12 11:00:11;;;;;;;;;;;;;;;26.64;53.62;101411.69;4840933;29;114979;-80
2023/08/12 11:02:40;;;;;;;;;;;;;;;26.64;53.69;101411.69;4834890;29;125421;-79
2023/08/12 11:05:08;;;;;;;;;;;;;;;26.68;53.60;101414.97;4854530;29;124431;-80
2023/08/12 11:07:42;;;;;;;;;;;;;;;26.70;53.70;101411.06;4858458;29;113841;-80
2023/08/12 11:10:12;;;;;;;;;;;;;;;26.77;54.00;101411.28;4848431;29;112337;-80
2023/08/12 11:12:39;;;;;;;;;;;;;;;26.85;54.04;101415.91;4856506;29;123063;-80
2023/08/12 11:15:06;;;;;;;;;;;;;;;26.91;53.55;101412.53;4827307;29;123161;-80
2023/08/12 11:17:34;;;;;;;;;;;;;;;26.95;53.75;101425.63;4842824;29;113717;-80
2023/08/12 11:20:04;;;;;;;;;;;;;;;27.02;53.82;101425.00;4849041;29;113734;-80
2023/08/12 11:22:32;;;;;;;;;;;;;;;27.06;53.61;101420.91;4847990;29;125156;-80
2023/08/12 11:24:59;;;;;;;;;;;;;;;27.08;53.57;101418.88;4842183;29;125288;-79
2023/08/12 11:27:26;;;;;;;;;;;;;;;27.10;53.49;101416.84;4852602;29;115944;-80
2023/08/12 11:29:53;;;;;;;;;;;;;;;27.16;53.50;101416.19;4843329;29;114588;-80
2023/08/12 11:32:20;;;;;;;;;;;;;;;27.27;53.58;101415.94;4847777;29;123300;-80
2023/08/12 11:34:48;;;;;;;;;;;;;;;27.37;53.50;101408.50;4856474;29;123560;-80
2023/08/12 11:37:15;;;;;;;;;;;;;;;27.48;53.69;101414.63;4841836;29;114302;-80
2023/08/12 11:39:42;;;;;;;;;;;;;;;27.53;53.46;101417.72;4850703;29;114178;-80
2023/08/12 11:42:09;;;;;;;;;;;;;;;27.54;53.32;101413.97;4856398;29;123196;-80
2023/08/12 11:44:36;;;;;;;;;;;;;;;27.53;53.34;101423.16;4843370;29;123398;-80
2023/08/12 11:47:03;;;;;;;;;;;;;;;27.48;52.90;101420.06;4850295;29;115079;-80
2023/08/12 11:49:30;;;;;;;;;;;;;;;27.42;52.91;101418.03;4839457;29;111809;-79
2023/08/12 11:51:57;;;;;;;;;;;;;;;27.36;53.01;101414.94;4848203;29;123257;-81
2023/08/12 11:54:24;;;;;;;;;;;;;;;27.31;52.92;101420.03;4873129;29;121972;-79
2023/08/12 11:56:54;;;;;;;;;;;;;;;27.27;52.85;101424.09;4840306;29;113969;-80
2023/08/12 11:59:21;;;;;;;;;;;;;;;27.31;53.05;101436.38;4856879;29;112086;-80
2023/08/12 12:01:49;;;;;;;;;;;;;;;27.40;53.05;101439.09;4859534;29;124992;-79
2023/08/12 12:04:19;;;;;;;;;;;;;;;27.44;52.81;101435.88;4857277;28;123667;-79
2023/08/12 12:06:49;;;;;;;;;;;;;;;27.44;53.03;101435.88;4853785;29;114734;-80
2023/08/12 12:09:18;;;;;;;;;;;;;;;27.49;52.78;101443.56;4846781;29;114621;-80
2023/08/12 12:11:51;;;;;;;;;;;;;;;27.53;52.92;101444.91;4846847;29;117850;-79
2023/08/12 12:14:18;;;;;;;;;;;;;;;27.58;53.04;101442.56;4836889;29;123507;-80
2023/08/12 12:16:46;;;;;;;;;;;;;;;27.64;53.00;101439.16;4848313;29;116332;-80
2023/08/12 12:19:15;;;;;;;;;;;;;;;27.71;52.93;101442.09;4849779;29;113640;-80
2023/08/12 12:21:44;;;;;;;;;;;;;;;27.79;52.79;101443.97;4854788;29;125594;-80
2023/08/12 12:24:11;;;;;;;;;;;;;;;27.84;52.68;101447.00;4858482;29;123941;-79
2023/08/12 12:26:38;;;;;;;;;;;;;;;27.87;52.79;101446.69;4853812;29;114545;-80
2023/08/12 12:29:05;;;;;;;;;;;;;;;27.89;52.74;101440.06;4861466;29;113324;-79
2023/08/12 12:31:34;;;;;;;;;;;;;;;27.91;52.29;101442.63;4859714;29;123919;-78